createdAt,value
2023-05-17T00:01:12.156Z,100997.28
2023-05-17T00:03:39.021Z,100994.47
2023-05-17T00:06:06.059Z,100989.03
2023-05-17T00:08:33.182Z,100981.69
2023-05-17T00:11:00.133Z,100991.06
2023-05-17T00:13:28.580Z,100986.81
2023-05-17T00:22:23.814Z,100992.03
2023-05-17T00:24:50.672Z,100994.56
2023-05-17T00:27:17.571Z,100996.84
2023-05-17T00:29:45.003Z,100990.00
2023-05-17T00:32:11.900Z,100998.34
2023-05-17T00:34:38.747Z,100990.19
2023-05-17T00:37:05.570Z,100989.00
2023-05-17T00:39:32.492Z,100991.78
2023-05-17T00:42:01.492Z,101001.22
2023-05-17T00:44:28.357Z,100990.91
2023-05-17T00:46:55.254Z,100996.66
2023-05-17T00:49:23.430Z,100993.38
2023-05-17T00:51:50.400Z,100999.81
2023-05-17T00:54:17.406Z,101000.75
2023-05-17T00:56:44.493Z,100997.69
2023-05-17T00:59:13.301Z,100992.47
2023-05-17T01:01:44.907Z,101001.69
2023-05-17T01:04:12.695Z,100991.25
2023-05-17T01:06:40.405Z,100998.53
2023-05-17T01:09:08.152Z,100994.47
2023-05-17T01:12:03.988Z,101002.97
2023-05-17T01:14:57.595Z,100995.25
2023-05-17T01:17:42.189Z,100999.72
2023-05-17T01:20:19.363Z,100993.69
2023-05-17T01:23:05.853Z,100998.41
2023-05-17T01:26:00.437Z,100997.47
2023-05-17T01:28:27.798Z,101002.78
2023-05-17T01:30:57.945Z,100998.84
2023-05-17T01:33:25.666Z,100998.31
2023-05-17T01:35:52.700Z,101004.50
2023-05-17T01:38:20.916Z,101009.50
2023-05-17T01:41:03.966Z,101007.13
2023-05-17T01:43:52.807Z,101007.56
2023-05-17T01:46:31.903Z,101006.84
2023-05-17T01:49:25.095Z,101009.63
2023-05-17T01:51:59.410Z,101010.56
2023-05-17T01:54:32.090Z,101012.41
2023-05-17T01:57:02.255Z,101018.28
2023-05-17T01:59:30.153Z,101019.16
2023-05-17T02:02:00.997Z,101018.91
2023-05-17T02:04:28.145Z,101030.41
2023-05-17T02:06:55.068Z,101023.69
2023-05-17T02:09:21.918Z,101025.94
2023-05-17T02:11:48.988Z,101025.19
2023-05-17T02:14:15.962Z,101027.53
2023-05-17T02:16:43.855Z,101017.91
2023-05-17T02:19:13.494Z,101018.53
2023-05-17T02:21:40.569Z,101016.09
2023-05-17T02:24:07.650Z,101022.13
2023-05-17T02:26:34.476Z,101023.69
2023-05-17T02:29:02.962Z,101008.84
2023-05-17T02:31:31.787Z,101011.72
2023-05-17T02:33:58.740Z,101012.13
2023-05-17T02:36:25.676Z,101000.25
2023-05-17T02:38:52.530Z,100995.53
2023-05-17T02:41:19.418Z,101001.06
2023-05-17T02:43:46.412Z,101004.34
2023-05-17T02:46:13.345Z,101003.69
2023-05-17T02:48:40.194Z,100997.34
2023-05-17T02:51:07.084Z,101012.28
2023-05-17T02:53:34.052Z,100995.34
2023-05-17T02:56:01.108Z,101002.56
2023-05-17T02:58:28.102Z,101013.44
2023-05-17T03:00:55.245Z,101007.00
2023-05-17T03:03:22.374Z,101014.44
2023-05-17T03:05:49.401Z,101013.28
2023-05-17T03:08:16.800Z,101017.66
2023-05-17T03:10:45.089Z,101014.09
2023-05-17T03:13:12.342Z,101019.66
2023-05-17T03:15:40.510Z,101020.94
2023-05-17T03:18:07.507Z,101018.16
2023-05-17T03:20:36.756Z,101034.69
2023-05-17T03:23:03.707Z,101026.44
2023-05-17T03:25:30.889Z,101034.38
2023-05-17T03:27:57.998Z,101032.94
2023-05-17T03:30:25.064Z,101035.53
2023-05-17T03:32:53.336Z,101030.72
2023-05-17T03:35:20.486Z,101031.53
2023-05-17T03:37:51.832Z,101036.75
2023-05-17T03:40:18.933Z,101038.31
2023-05-17T03:42:46.058Z,101035.94
2023-05-17T03:45:13.389Z,101047.50
2023-05-17T03:47:40.471Z,101047.50
2023-05-17T03:50:08.324Z,101049.06
2023-05-17T03:52:36.185Z,101046.50
2023-05-17T03:55:03.356Z,101043.97
2023-05-17T03:57:31.610Z,101054.34
2023-05-17T03:59:59.464Z,101056.78
2023-05-17T04:02:26.687Z,101049.75
2023-05-17T04:04:53.764Z,101065.34
2023-05-17T04:07:22.616Z,101065.44
2023-05-17T04:09:49.548Z,101066.09
2023-05-17T04:12:16.706Z,101074.25
2023-05-17T04:14:44.634Z,101070.06
2023-05-17T04:17:11.700Z,101078.59
2023-05-17T04:19:39.605Z,101081.25
2023-05-17T04:22:06.689Z,101080.50
2023-05-17T04:24:33.724Z,101083.47
2023-05-17T04:27:03.216Z,101084.09
2023-05-17T04:29:30.701Z,101088.47
2023-05-17T04:31:58.323Z,101087.56
2023-05-17T04:34:26.408Z,101089.47
2023-05-17T04:36:55.417Z,101095.59
2023-05-17T04:39:22.537Z,101092.59
2023-05-17T04:41:49.727Z,101098.41
2023-05-17T04:44:18.915Z,101109.94
2023-05-17T04:46:47.141Z,101111.13
2023-05-17T04:49:15.292Z,101113.06
2023-05-17T04:51:42.529Z,101120.25
2023-05-17T04:54:10.597Z,101122.94
2023-05-17T04:56:37.551Z,101138.59
2023-05-17T04:59:08.630Z,101139.78
2023-05-17T05:01:35.710Z,101134.50
2023-05-17T05:04:07.383Z,101147.78
2023-05-17T05:06:39.801Z,101144.78
2023-05-17T05:09:08.531Z,101143.78
2023-05-17T05:11:37.182Z,101149.06
2023-05-17T05:14:05.673Z,101153.66
2023-05-17T05:16:32.652Z,101153.81
2023-05-17T05:18:59.863Z,101158.88
2023-05-17T05:21:27.491Z,101168.81
2023-05-17T05:23:54.997Z,101185.41
2023-05-17T05:26:21.985Z,101178.81
2023-05-17T05:28:49.926Z,101186.88
2023-05-17T05:31:17.099Z,101188.06
2023-05-17T05:33:50.863Z,101169.53
2023-05-17T05:36:18.065Z,101172.13
2023-05-17T05:38:44.972Z,101174.38
2023-05-17T05:41:11.878Z,101179.03
2023-05-17T05:43:38.831Z,101182.41
2023-05-17T05:46:05.789Z,101186.97
2023-05-17T05:48:33.116Z,101183.69
2023-05-17T05:51:00.377Z,101199.47
2023-05-17T05:53:27.988Z,101188.53
2023-05-17T05:55:56.283Z,101197.66
2023-05-17T05:58:23.204Z,101190.41
2023-05-17T06:00:51.109Z,101188.63
2023-05-17T06:03:18.641Z,101184.94
2023-05-17T06:05:45.617Z,101210.28
2023-05-17T06:08:12.615Z,101209.81
2023-05-17T06:10:39.716Z,101221.66
2023-05-17T06:13:06.592Z,101235.56
2023-05-17T06:15:33.597Z,101222.56
2023-05-17T06:18:00.741Z,101236.44
2023-05-17T06:20:27.969Z,101236.09
2023-05-17T06:22:55.114Z,101234.25
2023-05-17T06:25:22.193Z,101235.56
2023-05-17T06:27:49.343Z,101229.75
2023-05-17T06:30:17.252Z,101232.75
2023-05-17T06:32:44.239Z,101232.66
2023-05-17T06:35:11.442Z,101241.22
2023-05-17T06:37:38.526Z,101235.19
2023-05-17T06:40:14.909Z,101226.38
2023-05-17T06:42:42.988Z,101251.19
2023-05-17T06:45:10.590Z,101239.50
2023-05-17T06:47:37.591Z,101238.38
2023-05-17T06:50:04.941Z,101232.91
2023-05-17T06:52:31.814Z,101241.09
2023-05-17T06:55:01.098Z,101242.19
2023-05-17T06:57:28.606Z,101241.19
2023-05-17T06:59:55.498Z,101241.03
2023-05-17T07:02:24.754Z,101252.88
2023-05-17T07:04:51.695Z,101266.41
2023-05-17T07:07:18.665Z,101260.50
2023-05-17T07:09:45.916Z,101257.06
2023-05-17T07:12:12.783Z,101250.66
2023-05-17T07:14:39.683Z,101255.84
2023-05-17T07:17:06.588Z,101258.50
2023-05-17T07:19:33.637Z,101252.81
2023-05-17T07:22:00.619Z,101259.44
2023-05-17T07:24:27.720Z,101256.16
2023-05-17T07:26:54.769Z,101253.28
2023-05-17T07:29:21.677Z,101259.44
2023-05-17T07:31:48.598Z,101259.44
2023-05-17T07:34:15.808Z,101258.50
2023-05-17T07:36:42.813Z,101264.53
2023-05-17T07:39:10.468Z,101270.53
2023-05-17T07:41:37.403Z,101272.34
2023-05-17T07:44:04.368Z,101280.09
2023-05-17T07:46:31.330Z,101283.59
2023-05-17T07:48:58.999Z,101282.81
2023-05-17T07:51:26.564Z,101284.44
2023-05-17T07:53:53.589Z,101286.94
2023-05-17T07:56:20.856Z,101291.75
2023-05-17T07:58:47.788Z,101293.06
2023-05-17T08:01:14.754Z,101294.38
2023-05-17T08:03:48.493Z,101302.59
2023-05-17T08:06:16.785Z,101318.41
2023-05-17T08:08:44.662Z,101322.63
2023-05-17T08:11:12.570Z,101316.75
2023-05-17T08:13:39.630Z,101323.91
2023-05-17T08:16:14.155Z,101340.03
2023-05-17T08:18:42.716Z,101333.09
2023-05-17T08:21:10.167Z,101329.22
2023-05-17T08:23:37.070Z,101327.06
2023-05-17T08:26:03.982Z,101323.13
2023-05-17T08:28:30.950Z,101317.63
2023-05-17T08:30:58.634Z,101324.13
2023-05-17T08:33:26.421Z,101320.38
2023-05-17T08:35:58.244Z,101327.94
2023-05-17T08:38:25.168Z,101324.13
2023-05-17T08:40:55.631Z,101319.84
2023-05-17T08:43:26.804Z,101317.97
2023-05-17T08:45:58.164Z,101325.72
2023-05-17T08:48:31.617Z,101311.19
2023-05-17T08:51:00.386Z,101337.09
2023-05-17T08:53:27.612Z,101340.78
2023-05-17T08:56:01.687Z,101321.56
2023-05-17T08:58:41.100Z,101325.94
2023-05-17T09:01:12.130Z,101333.19
2023-05-17T09:03:41.847Z,101325.25
2023-05-17T09:06:10.372Z,101331.78
2023-05-17T09:08:38.375Z,101320.97
2023-05-17T09:11:05.631Z,101325.13
2023-05-17T09:13:32.567Z,101325.53
2023-05-17T09:15:59.480Z,101323.47
2023-05-17T09:18:33.133Z,101314.28
2023-05-17T09:21:06.540Z,101322.53
2023-05-17T09:23:36.451Z,101318.66
2023-05-17T09:26:08.188Z,101319.69
2023-05-17T09:28:39.668Z,101314.97
2023-05-17T09:31:10.478Z,101319.88
2023-05-17T09:33:44.230Z,101321.06
2023-05-17T09:36:19.206Z,101322.16
2023-05-17T09:38:59.851Z,101333.44
2023-05-17T09:41:27.934Z,101342.22
2023-05-17T09:44:01.856Z,101344.91
2023-05-17T09:46:29.439Z,101342.84
2023-05-17T09:48:56.976Z,101338.66
2023-05-17T09:51:34.099Z,101338.31
2023-05-17T09:54:01.559Z,101348.47
2023-05-17T09:56:30.140Z,101349.09
2023-05-17T09:58:58.415Z,101337.13
2023-05-17T10:01:29.487Z,101334.88
2023-05-17T10:04:00.353Z,101334.72
2023-05-17T10:09:01.293Z,101332.06
2023-05-17T10:11:34.510Z,101342.94
2023-05-17T10:14:10.491Z,101337.75
2023-05-17T10:16:40.907Z,101335.38
2023-05-17T10:19:08.105Z,101348.25
2023-05-17T10:21:35.908Z,101352.75
2023-05-17T10:24:04.099Z,101347.81
2023-05-17T10:26:31.247Z,101343.25
2023-05-17T10:29:01.144Z,101337.88
2023-05-17T10:31:29.893Z,101345.72
2023-05-17T10:33:57.372Z,101332.69
2023-05-17T10:36:25.013Z,101335.13
2023-05-17T10:38:52.849Z,101343.22
2023-05-17T10:41:23.377Z,101354.03
2023-05-17T10:43:50.935Z,101352.03
2023-05-17T10:46:21.717Z,101355.78
2023-05-17T10:48:52.405Z,101358.63
2023-05-17T10:51:34.747Z,101353.59
2023-05-17T10:54:05.346Z,101363.41
2023-05-17T10:56:32.884Z,101363.13
2023-05-17T10:59:24.528Z,101360.25
2023-05-17T11:02:07.230Z,101355.69
2023-05-17T11:04:43.147Z,101349.94
2023-05-17T11:07:17.084Z,101366.09
2023-05-17T11:09:49.752Z,101362.16
2023-05-17T11:12:17.744Z,101361.41
2023-05-17T11:14:48.919Z,101365.16
2023-05-17T11:17:18.139Z,101368.03
2023-05-17T11:19:57.595Z,101360.50
2023-05-17T11:22:25.555Z,101358.84
2023-05-17T11:24:54.488Z,101364.63
2023-05-17T11:27:27.522Z,101364.53
2023-05-17T11:29:55.668Z,101357.53
2023-05-17T11:32:29.424Z,101352.28
2023-05-17T11:34:56.912Z,101361.47
2023-05-17T11:37:30.766Z,101358.25
2023-05-17T11:40:08.511Z,101349.06
2023-05-17T11:42:37.492Z,101343.13
2023-05-17T11:45:04.783Z,101367.00
2023-05-17T11:47:32.025Z,101362.09
2023-05-17T11:50:03.424Z,101363.59
2023-05-17T11:52:32.116Z,101359.75
2023-05-17T11:54:59.175Z,101349.72
2023-05-17T11:57:32.738Z,101348.88
2023-05-17T12:00:01.755Z,101349.38
2023-05-17T12:02:32.766Z,101345.97
2023-05-17T12:05:00.226Z,101352.81
2023-05-17T12:07:28.029Z,101372.72
2023-05-17T12:09:54.986Z,101358.03
2023-05-17T12:12:23.009Z,101364.13
2023-05-17T12:14:50.857Z,101369.81
2023-05-17T12:17:30.696Z,101367.03
2023-05-17T12:20:08.047Z,101362.56
2023-05-17T12:22:35.155Z,101353.81
2023-05-17T12:25:02.070Z,101363.28
2023-05-17T12:27:28.932Z,101361.03
2023-05-17T12:29:56.661Z,101357.59
2023-05-17T12:32:25.058Z,101364.78
2023-05-17T12:34:52.075Z,101365.31
2023-05-17T12:37:19.033Z,101377.16
2023-05-17T12:39:46.020Z,101374.06
2023-05-17T12:42:13.251Z,101371.84
2023-05-17T12:44:40.233Z,101376.31
2023-05-17T12:47:07.460Z,101367.88
2023-05-17T12:49:39.142Z,101373.28
2023-05-17T12:52:06.482Z,101377.88
2023-05-17T12:54:33.511Z,101372.69
2023-05-17T12:57:11.660Z,101371.41
2023-05-17T12:59:50.096Z,101371.53
2023-05-17T13:02:17.712Z,101380.53
2023-05-17T13:04:44.750Z,101375.44
2023-05-17T13:07:11.648Z,101368.50
2023-05-17T13:09:48.446Z,101369.78
2023-05-17T13:12:20.756Z,101360.00
2023-05-17T13:14:49.245Z,101368.63
2023-05-17T13:17:16.124Z,101370.50
2023-05-17T13:19:43.463Z,101362.50
2023-05-17T13:22:10.842Z,101366.59
2023-05-17T13:24:39.940Z,101380.44
2023-05-17T13:27:07.979Z,101379.31
2023-05-17T13:29:40.119Z,101369.66
2023-05-17T13:32:08.655Z,101371.69
2023-05-17T13:34:35.916Z,101368.88
2023-05-17T13:37:02.913Z,101370.16
2023-05-17T13:39:29.807Z,101360.19
2023-05-17T13:41:56.887Z,101363.59
2023-05-17T13:44:23.829Z,101367.03
2023-05-17T13:46:50.826Z,101369.97
2023-05-17T13:49:18.079Z,101371.44
2023-05-17T13:51:45.320Z,101377.06
2023-05-17T13:54:12.909Z,101372.69
2023-05-17T13:56:39.883Z,101382.59
2023-05-17T13:59:06.810Z,101385.31
2023-05-17T14:01:33.982Z,101392.59
2023-05-17T14:04:01.188Z,101379.47
2023-05-17T14:06:28.582Z,101379.69
2023-05-17T14:08:57.857Z,101386.34
2023-05-17T14:11:24.877Z,101382.22
2023-05-17T14:13:52.207Z,101389.91
2023-05-17T14:16:19.088Z,101388.44
2023-05-17T14:18:46.715Z,101391.47
2023-05-17T14:21:13.687Z,101394.84
2023-05-17T14:23:40.598Z,101394.69
2023-05-17T14:26:07.766Z,101395.91
2023-05-17T14:28:38.423Z,101394.63
2023-05-17T14:31:06.517Z,101398.34
2023-05-17T14:33:33.690Z,101404.75
2023-05-17T14:36:00.813Z,101395.75
2023-05-17T14:38:27.731Z,101400.69
2023-05-17T14:40:55.046Z,101413.78
2023-05-17T14:43:22.523Z,101407.66
2023-05-17T14:45:49.469Z,101413.66
2023-05-17T14:48:16.557Z,101418.84
2023-05-17T14:50:43.726Z,101410.06
2023-05-17T14:53:10.644Z,101417.91
2023-05-17T14:55:38.121Z,101430.50
2023-05-17T14:58:05.071Z,101432.34
2023-05-17T15:00:31.979Z,101436.53
2023-05-17T15:02:59.305Z,101441.53
2023-05-17T15:05:26.300Z,101433.81
2023-05-17T15:07:53.217Z,101427.63
2023-05-17T15:10:20.580Z,101446.25
2023-05-17T15:12:47.761Z,101455.34
2023-05-17T15:15:14.739Z,101440.38
2023-05-17T15:17:41.968Z,101446.47
2023-05-17T15:20:09.693Z,101446.09
2023-05-17T15:22:36.924Z,101436.03
2023-05-17T15:25:04.937Z,101445.66
2023-05-17T15:27:31.946Z,101444.06
2023-05-17T15:29:59.016Z,101449.66
2023-05-17T15:32:26.768Z,101447.78
2023-05-17T15:34:53.692Z,101450.22
2023-05-17T15:37:21.170Z,101462.72
2023-05-17T15:39:48.110Z,101466.28
2023-05-17T15:42:15.045Z,101473.31
2023-05-17T15:44:42.047Z,101464.50
2023-05-17T15:47:09.020Z,101469.97
2023-05-17T15:49:36.084Z,101466.41
2023-05-17T15:52:03.719Z,101471.66
2023-05-17T15:54:30.616Z,101471.31
2023-05-17T15:56:58.070Z,101470.69
2023-05-17T15:59:25.010Z,101467.25
2023-05-17T16:01:51.911Z,101476.09
2023-05-17T16:04:18.965Z,101468.06
2023-05-17T16:06:46.123Z,101467.59
2023-05-17T16:09:14.608Z,101471.25
2023-05-17T16:11:41.876Z,101463.72
2023-05-17T16:14:09.680Z,101476.81
2023-05-17T16:16:36.782Z,101471.66
2023-05-17T16:19:04.816Z,101476.66
2023-05-17T16:21:32.908Z,101472.53
2023-05-17T16:23:59.834Z,101479.78
2023-05-17T16:26:26.833Z,101487.72
2023-05-17T16:28:57.060Z,101486.72
2023-05-17T16:31:24.217Z,101494.13
2023-05-17T16:33:51.457Z,101487.28
2023-05-17T16:36:18.960Z,101488.03
2023-05-17T16:38:45.923Z,101493.53
2023-05-17T16:41:12.811Z,101494.09
2023-05-17T16:43:39.779Z,101502.16
2023-05-17T16:46:06.985Z,101506.94
2023-05-17T16:48:33.994Z,101505.66
2023-05-17T16:51:01.250Z,101508.50
2023-05-17T16:53:30.904Z,101505.50
2023-05-17T16:55:57.828Z,101507.19
2023-05-17T16:58:26.320Z,101505.47
2023-05-17T17:00:53.233Z,101514.03
2023-05-17T17:03:20.601Z,101509.38
2023-05-17T17:05:47.571Z,101502.81
2023-05-17T17:08:17.772Z,101509.88
2023-05-17T17:10:44.641Z,101513.16
2023-05-17T17:13:11.870Z,101518.09
2023-05-17T17:15:39.218Z,101520.13
2023-05-17T17:18:06.470Z,101514.69
2023-05-17T17:20:33.406Z,101518.41
2023-05-17T17:23:00.295Z,101521.28
2023-05-17T17:25:27.255Z,101514.88
2023-05-17T17:27:54.250Z,101512.69
2023-05-17T17:30:21.214Z,101519.09
2023-05-17T17:32:48.417Z,101516.69
2023-05-17T17:35:15.582Z,101509.81
2023-05-17T17:37:42.518Z,101512.97
2023-05-17T17:40:09.779Z,101511.91
2023-05-17T17:42:36.703Z,101520.38
2023-05-17T17:45:04.390Z,101514.97
2023-05-17T17:47:31.705Z,101523.19
2023-05-17T17:49:58.715Z,101527.91
2023-05-17T17:52:25.694Z,101516.56
2023-05-17T17:54:52.581Z,101525.47
2023-05-17T17:57:20.413Z,101524.38
2023-05-17T17:59:47.356Z,101524.59
2023-05-17T18:02:14.233Z,101529.97
2023-05-17T18:04:41.392Z,101525.56
2023-05-17T18:07:08.653Z,101532.91
2023-05-17T18:09:35.867Z,101535.06
2023-05-17T18:12:02.836Z,101534.13
2023-05-17T18:14:29.724Z,101544.56
2023-05-17T18:16:56.815Z,101543.03
2023-05-17T18:19:23.812Z,101546.44
2023-05-17T18:21:51.030Z,101544.34
2023-05-17T18:24:18.869Z,101544.34
2023-05-17T18:26:45.814Z,101550.97
2023-05-17T18:29:13.781Z,101554.34
2023-05-17T18:31:41.112Z,101558.47
2023-05-17T18:34:08.258Z,101578.38
2023-05-17T18:36:35.144Z,101569.50
2023-05-17T18:39:02.090Z,101569.03
2023-05-17T18:41:28.998Z,101582.88
2023-05-17T18:44:01.872Z,101579.75
2023-05-17T18:46:29.541Z,101589.97
2023-05-17T18:48:56.602Z,101587.97
2023-05-17T18:51:23.730Z,101596.38
2023-05-17T18:53:50.688Z,101594.09
2023-05-17T18:56:22.960Z,101593.53
2023-05-17T18:58:52.695Z,101595.41
2023-05-17T19:01:19.992Z,101600.66
2023-05-17T19:03:47.995Z,101600.00
2023-05-17T19:06:15.245Z,101608.38
2023-05-17T19:08:42.388Z,101608.81
2023-05-17T19:11:09.665Z,101623.50
2023-05-17T19:13:37.079Z,101629.19
2023-05-17T19:16:04.266Z,101629.28
2023-05-17T19:18:31.342Z,101635.50
2023-05-17T19:20:58.240Z,101635.19
2023-05-17T19:23:25.458Z,101650.44
2023-05-17T19:25:53.768Z,101648.84
2023-05-17T19:28:23.857Z,101651.28
2023-05-17T19:30:51.079Z,101656.88
2023-05-17T19:33:18.030Z,101649.06
2023-05-17T19:35:45.608Z,101661.63
2023-05-17T19:38:12.577Z,101661.28
2023-05-17T19:40:41.066Z,101676.59
2023-05-17T19:43:07.939Z,101668.44
2023-05-17T19:45:35.543Z,101664.97
2023-05-17T19:48:02.765Z,101679.34
2023-05-17T19:50:30.143Z,101680.88
2023-05-17T19:52:57.192Z,101685.19
2023-05-17T19:55:25.255Z,101681.69
2023-05-17T19:57:52.455Z,101686.31
2023-05-17T20:00:19.655Z,101694.22
2023-05-17T20:02:49.576Z,101695.31
2023-05-17T20:05:19.475Z,101703.38
2023-05-17T20:07:46.582Z,101704.63
2023-05-17T20:10:13.698Z,101711.19
2023-05-17T20:12:42.157Z,101705.25
2023-05-17T20:15:09.725Z,101708.06
2023-05-17T20:17:36.697Z,101713.50
2023-05-17T20:20:05.543Z,101712.63
2023-05-17T20:22:33.358Z,101720.69
2023-05-17T20:25:00.415Z,101720.34
2023-05-17T20:27:27.474Z,101728.91
2023-05-17T20:29:54.437Z,101728.78
2023-05-17T20:32:21.775Z,101730.06
2023-05-17T20:34:48.819Z,101732.47
2023-05-17T20:37:15.825Z,101735.75
2023-05-17T20:39:42.932Z,101735.69
2023-05-17T20:42:10.108Z,101740.47
2023-05-17T20:44:37.046Z,101736.69
2023-05-17T20:47:06.051Z,101735.41
2023-05-17T20:49:32.925Z,101736.16
2023-05-17T20:52:03.629Z,101751.47
2023-05-17T20:54:31.000Z,101746.28
2023-05-17T20:56:58.874Z,101744.81
2023-05-17T20:59:26.899Z,101755.16
2023-05-17T21:01:54.001Z,101749.84
2023-05-17T21:04:21.079Z,101748.28
2023-05-17T21:06:48.036Z,101747.22
2023-05-17T21:09:15.099Z,101752.81
2023-05-17T21:11:44.341Z,101752.50
2023-05-17T21:14:11.288Z,101750.44
2023-05-17T21:16:38.339Z,101739.69
2023-05-17T21:19:05.497Z,101745.75
2023-05-17T21:21:32.449Z,101746.94
2023-05-17T21:23:59.362Z,101753.75
2023-05-17T21:28:55.463Z,101749.22
2023-05-17T21:31:22.403Z,101759.06
2023-05-17T21:33:50.164Z,101753.75
2023-05-17T21:36:17.084Z,101755.16
2023-05-17T21:38:44.200Z,101754.03
2023-05-17T21:41:11.081Z,101757.13
2023-05-17T21:43:37.980Z,101761.13
2023-05-17T21:46:05.208Z,101753.50
2023-05-17T21:48:32.533Z,101761.88
2023-05-17T21:50:59.548Z,101763.34
2023-05-17T21:53:27.486Z,101757.88
2023-05-17T21:56:01.909Z,101754.38
2023-05-17T21:58:30.832Z,101754.81
2023-05-17T22:01:01.649Z,101751.22
2023-05-17T22:03:28.819Z,101751.75
2023-05-17T22:05:55.785Z,101757.91
2023-05-17T22:08:22.698Z,101755.34
2023-05-17T22:10:50.453Z,101759.84
2023-05-17T22:13:18.574Z,101752.03
2023-05-17T22:15:45.556Z,101756.78
2023-05-17T22:18:12.601Z,101759.53
2023-05-17T22:20:39.911Z,101754.63
2023-05-17T22:23:06.755Z,101759.88
2023-05-17T22:25:33.664Z,101758.38
2023-05-17T22:28:00.579Z,101761.38
2023-05-17T22:30:27.461Z,101759.94
2023-05-17T22:32:57.337Z,101753.09
2023-05-17T22:35:24.665Z,101756.03
2023-05-17T22:37:53.584Z,101760.22
2023-05-17T22:40:21.046Z,101763.44
2023-05-17T22:42:48.501Z,101768.22
2023-05-17T22:45:15.414Z,101764.22
2023-05-17T22:47:47.102Z,101768.19
2023-05-17T22:50:15.929Z,101768.13
2023-05-17T22:52:43.369Z,101773.25
2023-05-17T22:55:10.913Z,101770.03
2023-05-17T22:57:38.124Z,101780.97
2023-05-17T23:00:09.662Z,101780.81
2023-05-17T23:02:36.790Z,101788.78
2023-05-17T23:05:04.946Z,101787.75
2023-05-17T23:07:37.340Z,101796.47
2023-05-17T23:10:09.303Z,101788.59
2023-05-17T23:12:37.663Z,101788.50
2023-05-17T23:15:05.334Z,101796.75
2023-05-17T23:17:32.963Z,101792.16
2023-05-17T23:20:08.298Z,101790.41
2023-05-17T23:22:35.545Z,101790.44
2023-05-17T23:25:03.693Z,101793.31
2023-05-17T23:27:30.980Z,101790.81
2023-05-17T23:29:57.984Z,101788.69
2023-05-17T23:32:24.852Z,101791.03
2023-05-17T23:34:58.583Z,101787.31
2023-05-17T23:37:25.884Z,101793.56
2023-05-17T23:39:52.913Z,101788.31
2023-05-17T23:42:20.552Z,101791.88
2023-05-17T23:44:49.238Z,101791.88
2023-05-17T23:47:16.343Z,101797.59
2023-05-17T23:49:43.269Z,101796.72
2023-05-17T23:52:11.459Z,101794.00
2023-05-17T23:54:39.489Z,101801.06
2023-05-17T23:57:07.623Z,101802.66
2023-05-17T23:59:35.585Z,101802.50
